createdAt,value
2023-09-13T00:00:58.572Z,3.00
2023-09-13T00:03:46.878Z,3.03
2023-09-13T00:06:35.093Z,2.95
2023-09-13T00:09:22.959Z,3.40
2023-09-13T00:12:10.973Z,3.30
2023-09-13T00:14:58.820Z,2.93
2023-09-13T00:17:48.062Z,3.13
2023-09-13T00:20:35.963Z,3.10
2023-09-13T00:23:23.883Z,2.88
2023-09-13T00:26:12.660Z,3.25
2023-09-13T00:29:00.543Z,2.77
2023-09-13T00:31:48.591Z,3.03
2023-09-13T00:34:37.974Z,3.00
2023-09-13T00:37:25.821Z,3.20
2023-09-13T00:40:13.944Z,2.72
2023-09-13T00:43:01.965Z,2.57
2023-09-13T00:45:51.732Z,2.58
2023-09-13T00:48:39.775Z,3.00
2023-09-13T00:51:29.683Z,3.35
2023-09-13T00:54:17.598Z,4.00
2023-09-13T00:57:05.835Z,3.60
2023-09-13T00:59:54.050Z,3.35
2023-09-13T01:02:42.397Z,3.50
2023-09-13T01:05:30.517Z,3.50
2023-09-13T01:08:19.759Z,3.67
2023-09-13T01:11:07.803Z,3.87
2023-09-13T01:13:55.584Z,3.97
2023-09-13T01:16:48.906Z,3.78
2023-09-13T01:19:49.040Z,4.32
2023-09-13T01:23:08.178Z,4.07
2023-09-13T01:26:02.051Z,4.07
2023-09-13T01:28:52.555Z,3.92
2023-09-13T01:31:40.572Z,4.90
2023-09-13T01:34:28.545Z,4.45
2023-09-13T01:37:16.429Z,4.30
2023-09-13T01:40:07.769Z,4.10
2023-09-13T01:42:57.875Z,3.80
2023-09-13T01:45:47.670Z,3.95
2023-09-13T01:48:36.938Z,4.40
2023-09-13T01:51:25.613Z,4.35
2023-09-13T01:54:13.575Z,3.90
2023-09-13T01:57:01.521Z,4.68
2023-09-13T01:59:49.348Z,4.35
2023-09-13T02:02:38.690Z,5.10
2023-09-13T02:05:26.537Z,4.65
2023-09-13T02:08:14.453Z,4.47
2023-09-13T02:11:02.378Z,5.55
2023-09-13T02:13:52.084Z,5.88
2023-09-13T02:16:40.125Z,5.95
2023-09-13T02:19:29.572Z,6.22
2023-09-13T02:22:17.472Z,5.73
2023-09-13T02:25:06.122Z,5.95
2023-09-13T02:27:54.001Z,6.68
2023-09-13T02:30:41.927Z,7.32
2023-09-13T02:33:29.936Z,8.57
2023-09-13T02:36:19.233Z,7.33
2023-09-13T02:39:07.603Z,8.43
2023-09-13T02:41:55.483Z,8.40
2023-09-13T02:44:43.357Z,8.38
2023-09-13T02:47:31.259Z,8.85
2023-09-13T02:50:19.210Z,8.37
2023-09-13T02:53:08.429Z,8.43
2023-09-13T02:56:04.244Z,8.63
2023-09-13T02:58:52.244Z,9.30
2023-09-13T03:01:40.242Z,8.88
2023-09-13T03:04:28.511Z,8.90
2023-09-13T03:07:16.467Z,9.50
2023-09-13T03:10:06.167Z,9.43
2023-09-13T03:12:54.338Z,10.15
2023-09-13T03:15:42.248Z,10.10
2023-09-13T03:18:30.250Z,11.10
2023-09-13T03:21:19.660Z,12.10
2023-09-13T03:24:10.902Z,11.80
2023-09-13T03:27:01.606Z,12.38
2023-09-13T03:29:49.564Z,12.43
2023-09-13T03:32:37.439Z,12.07
2023-09-13T03:35:26.540Z,12.20
2023-09-13T03:38:14.355Z,12.95
2023-09-13T03:41:03.775Z,11.77
2023-09-13T03:43:53.055Z,11.52
2023-09-13T03:46:41.129Z,11.43
2023-09-13T03:49:29.045Z,11.52
2023-09-13T03:52:16.944Z,11.63
2023-09-13T03:55:05.358Z,11.38
2023-09-13T03:57:53.213Z,10.32
2023-09-13T04:00:42.571Z,8.90
2023-09-13T04:03:30.536Z,9.93
2023-09-13T04:06:18.682Z,9.77
2023-09-13T04:09:07.632Z,9.05
2023-09-13T04:11:55.524Z,8.20
2023-09-13T04:14:43.374Z,8.70
2023-09-13T04:17:32.669Z,8.53
2023-09-13T04:20:21.091Z,7.90
2023-09-13T04:23:08.967Z,8.20
2023-09-13T04:25:56.805Z,8.40
2023-09-13T04:28:44.781Z,9.05
2023-09-13T04:31:32.723Z,8.47
2023-09-13T04:34:22.062Z,3.50
2023-09-13T04:37:10.031Z,1.60
2023-09-13T04:39:58.134Z,1.48
2023-09-13T04:42:52.117Z,1.92
2023-09-13T04:45:40.051Z,1.30
2023-09-13T04:48:28.106Z,1.25
2023-09-13T04:51:17.654Z,1.20
2023-09-13T04:54:05.758Z,1.35
2023-09-13T04:56:53.752Z,0.88
2023-09-13T04:59:45.360Z,1.00
2023-09-13T05:02:33.427Z,0.95
2023-09-13T05:05:21.444Z,1.35
2023-09-13T05:08:10.672Z,1.20
2023-09-13T05:10:58.546Z,1.25
2023-09-13T05:13:48.533Z,1.27
2023-09-13T05:16:36.575Z,0.90
2023-09-13T05:19:24.701Z,1.45
2023-09-13T05:22:12.653Z,1.25
2023-09-13T05:25:02.960Z,0.98
2023-09-13T05:27:53.276Z,0.67
2023-09-13T05:30:41.329Z,0.68
2023-09-13T05:33:29.369Z,0.98
2023-09-13T05:36:17.658Z,0.70
2023-09-13T05:39:05.593Z,0.90
2023-09-13T05:41:55.416Z,1.07
2023-09-13T05:44:43.263Z,0.90
2023-09-13T05:47:31.344Z,1.00
2023-09-13T05:50:19.247Z,0.93
2023-09-13T05:53:07.161Z,0.93
2023-09-13T05:55:55.096Z,0.80
2023-09-13T05:58:45.229Z,0.80
2023-09-13T06:01:33.138Z,1.17
2023-09-13T06:04:21.074Z,0.90
2023-09-13T06:07:10.239Z,0.90
2023-09-13T06:09:59.621Z,0.80
2023-09-13T06:12:47.458Z,0.68
2023-09-13T06:15:36.730Z,0.88
2023-09-13T06:18:24.894Z,1.00
2023-09-13T06:21:15.091Z,0.75
2023-09-13T06:24:02.904Z,0.70
2023-09-13T06:26:50.754Z,0.80
2023-09-13T06:29:38.612Z,0.90
2023-09-13T06:32:39.571Z,0.68
2023-09-13T06:35:30.085Z,0.75
2023-09-13T06:38:19.165Z,0.60
2023-09-13T06:41:07.329Z,0.70
2023-09-13T06:44:08.309Z,0.75
2023-09-13T06:47:04.337Z,0.80
2023-09-13T06:49:55.297Z,0.90
2023-09-13T06:53:04.900Z,0.70
2023-09-13T06:55:54.790Z,0.80
2023-09-13T06:58:44.056Z,0.82
2023-09-13T07:01:58.480Z,0.70
2023-09-13T07:04:45.782Z,0.65
2023-09-13T07:07:51.137Z,0.93
2023-09-13T07:10:39.458Z,0.80
2023-09-13T07:13:27.845Z,1.05
2023-09-13T07:16:15.722Z,0.73
2023-09-13T07:19:04.896Z,0.73
2023-09-13T07:21:53.157Z,0.70
2023-09-13T07:24:42.727Z,0.82
2023-09-13T07:27:30.721Z,0.90
2023-09-13T07:30:21.525Z,0.80
2023-09-13T07:33:09.533Z,0.80
2023-09-13T07:35:57.601Z,0.80
2023-09-13T07:38:46.089Z,0.80
2023-09-13T07:41:36.831Z,1.17
2023-09-13T07:44:24.836Z,0.73
2023-09-13T07:47:12.775Z,0.80
2023-09-13T07:50:01.274Z,0.70
2023-09-13T07:55:42.820Z,0.80
2023-09-13T07:58:32.112Z,0.85
2023-09-13T08:01:20.115Z,0.80
2023-09-13T08:04:08.233Z,0.73
2023-09-13T08:06:56.131Z,0.70
2023-09-13T08:09:43.996Z,0.70
2023-09-13T08:12:32.122Z,0.70
2023-09-13T08:15:30.735Z,0.73
2023-09-13T08:18:26.473Z,0.63
2023-09-13T08:21:14.360Z,0.90
2023-09-13T08:24:04.207Z,0.60
2023-09-13T08:26:52.261Z,0.80
2023-09-13T08:29:41.061Z,0.73
2023-09-13T08:32:30.399Z,0.90
2023-09-13T08:35:18.412Z,0.57
2023-09-13T08:38:07.220Z,0.80
2023-09-13T08:40:56.097Z,0.73
2023-09-13T08:43:44.897Z,0.90
2023-09-13T08:46:33.610Z,0.60
2023-09-13T08:49:23.164Z,0.80
2023-09-13T08:52:14.050Z,0.73
2023-09-13T08:55:05.197Z,0.70
2023-09-13T08:57:54.503Z,0.73
2023-09-13T09:00:43.640Z,0.73
2023-09-13T09:03:32.524Z,0.60
2023-09-13T09:06:22.547Z,0.70
2023-09-13T09:09:10.807Z,0.80
2023-09-13T09:11:59.694Z,0.80
2023-09-13T09:14:48.096Z,0.70
2023-09-13T09:17:36.820Z,0.60
2023-09-13T09:20:28.967Z,0.70
2023-09-13T09:23:19.320Z,1.00
2023-09-13T09:26:07.380Z,0.77
2023-09-13T09:28:55.965Z,0.57
2023-09-13T09:31:44.232Z,0.68
2023-09-13T09:34:32.533Z,0.70
2023-09-13T09:37:20.529Z,0.80
2023-09-13T09:40:15.623Z,0.98
2023-09-13T09:43:03.633Z,1.07
2023-09-13T09:45:51.652Z,0.60
2023-09-13T09:48:40.780Z,0.68
2023-09-13T09:51:29.685Z,0.80
2023-09-13T09:54:17.564Z,0.70
2023-09-13T09:57:07.269Z,0.60
2023-09-13T09:59:55.182Z,0.70
2023-09-13T10:02:43.137Z,0.68
2023-09-13T10:05:31.084Z,0.70
2023-09-13T10:08:18.959Z,0.75
2023-09-13T10:11:07.182Z,0.70
2023-09-13T10:13:56.625Z,0.60
2023-09-13T10:16:45.566Z,0.50
2023-09-13T10:19:34.126Z,0.60
2023-09-13T10:22:26.457Z,0.40
2023-09-13T10:25:15.906Z,0.70
2023-09-13T10:28:04.885Z,0.50
2023-09-13T10:30:54.260Z,0.57
2023-09-13T10:33:45.273Z,0.70
2023-09-13T10:36:33.852Z,0.60
2023-09-13T10:39:25.544Z,0.57
2023-09-13T10:42:58.645Z,0.52
2023-09-13T10:45:46.630Z,0.57
2023-09-13T10:48:36.646Z,0.70
2023-09-13T10:51:24.962Z,0.60
2023-09-13T10:54:13.862Z,0.70
2023-09-13T10:57:03.595Z,0.80
2023-09-13T10:59:52.849Z,0.90
2023-09-13T11:02:42.087Z,0.80
2023-09-13T11:05:31.812Z,0.93
2023-09-13T11:08:29.826Z,0.93
2023-09-13T11:11:19.365Z,0.70
2023-09-13T11:14:11.092Z,0.70
2023-09-13T11:17:10.934Z,0.60
2023-09-13T11:20:13.750Z,0.90
2023-09-13T11:23:22.958Z,1.00
2023-09-13T11:26:30.064Z,0.88
2023-09-13T11:29:25.635Z,0.77
2023-09-13T11:32:20.164Z,0.90
2023-09-13T11:35:08.725Z,1.02
2023-09-13T11:37:57.154Z,0.97
2023-09-13T11:40:49.326Z,0.90
2023-09-13T11:43:51.624Z,0.90
2023-09-13T11:46:49.780Z,0.77
2023-09-13T11:49:41.974Z,0.80
2023-09-13T11:52:50.462Z,1.27
2023-09-13T11:55:40.642Z,1.20
2023-09-13T11:58:38.732Z,1.27
2023-09-13T12:01:35.941Z,1.20
2023-09-13T12:07:19.227Z,1.30
2023-09-13T12:10:11.175Z,1.42
2023-09-13T12:13:09.463Z,1.17
2023-09-13T12:16:04.177Z,1.15
2023-09-13T12:18:52.626Z,1.60
2023-09-13T12:21:44.129Z,1.50
2023-09-13T12:24:32.301Z,1.30
2023-09-13T12:27:20.452Z,1.42
2023-09-13T12:30:11.109Z,1.30
2023-09-13T12:33:00.572Z,1.42
2023-09-13T12:35:49.741Z,1.37
2023-09-13T12:38:47.101Z,1.20
2023-09-13T12:41:35.108Z,1.40
2023-09-13T12:44:22.981Z,1.50
2023-09-13T12:47:10.890Z,1.70
2023-09-13T12:50:00.732Z,1.13
2023-09-13T12:52:52.107Z,1.23
2023-09-13T12:55:40.853Z,1.20
2023-09-13T12:58:28.924Z,1.10
2023-09-13T13:01:16.986Z,1.23
2023-09-13T13:04:07.883Z,1.13
2023-09-13T13:06:59.033Z,1.20
2023-09-13T13:09:51.017Z,1.17
2023-09-13T13:12:39.162Z,1.23
2023-09-13T13:15:31.165Z,1.50
2023-09-13T13:18:19.052Z,1.10
2023-09-13T13:21:09.060Z,1.20
2023-09-13T13:23:58.721Z,1.13
2023-09-13T13:26:46.640Z,1.10
2023-09-13T13:29:35.987Z,1.00
2023-09-13T13:32:23.996Z,0.87
2023-09-13T13:35:11.935Z,1.10
2023-09-13T13:37:59.876Z,1.00
2023-09-13T13:40:49.065Z,1.10
2023-09-13T13:43:37.160Z,1.00
2023-09-13T13:46:25.245Z,1.40
2023-09-13T13:49:17.351Z,1.08
2023-09-13T13:52:05.591Z,0.95
2023-09-13T13:54:53.414Z,1.48
2023-09-13T13:57:43.631Z,1.33
2023-09-13T14:00:31.578Z,1.30
2023-09-13T14:03:19.698Z,1.38
2023-09-13T14:06:07.608Z,1.30
2023-09-13T14:08:55.481Z,1.15
2023-09-13T14:11:43.431Z,1.20
2023-09-13T14:14:32.702Z,1.60
2023-09-13T14:17:20.510Z,1.23
2023-09-13T14:20:09.173Z,1.15
2023-09-13T14:22:57.057Z,1.30
2023-09-13T14:25:44.910Z,1.40
2023-09-13T14:28:34.000Z,1.10
2023-09-13T14:31:23.426Z,1.13
2023-09-13T14:34:11.640Z,1.15
2023-09-13T14:36:59.876Z,1.00
2023-09-13T14:39:47.742Z,0.98
2023-09-13T14:42:35.708Z,1.20
2023-09-13T14:45:23.656Z,1.20
2023-09-13T14:48:12.960Z,1.20
2023-09-13T14:51:00.947Z,1.30
2023-09-13T14:53:48.796Z,1.15
2023-09-13T14:56:36.648Z,1.10
2023-09-13T14:59:24.553Z,1.10
2023-09-13T15:02:12.480Z,1.20
2023-09-13T15:05:01.771Z,0.98
2023-09-13T15:07:49.632Z,1.10
2023-09-13T15:10:37.385Z,1.03
2023-09-13T15:13:25.261Z,1.20
2023-09-13T15:16:14.484Z,1.08
2023-09-13T15:19:03.885Z,0.93
2023-09-13T15:21:53.281Z,0.93
2023-09-13T15:24:41.131Z,0.90
2023-09-13T15:27:29.132Z,1.08
2023-09-13T15:30:19.531Z,0.90
2023-09-13T15:33:07.762Z,1.05
2023-09-13T15:35:55.754Z,0.82
2023-09-13T15:38:58.193Z,1.17
2023-09-13T15:41:46.802Z,0.88
2023-09-13T15:44:34.822Z,0.80
2023-09-13T15:47:22.686Z,1.15
2023-09-13T15:50:10.821Z,1.20
2023-09-13T15:52:58.736Z,0.90
2023-09-13T15:55:48.053Z,0.90
2023-09-13T15:58:36.343Z,1.00
2023-09-13T16:01:24.238Z,1.17
2023-09-13T16:04:12.175Z,1.05
2023-09-13T16:07:00.190Z,1.03
2023-09-13T16:09:48.117Z,1.20
2023-09-13T16:12:39.736Z,0.90
2023-09-13T16:15:27.774Z,0.90
2023-09-13T16:18:15.856Z,0.90
2023-09-13T16:21:03.919Z,0.90
2023-09-13T16:23:51.787Z,1.00
2023-09-13T16:26:39.646Z,0.93
2023-09-13T16:29:28.907Z,1.00
2023-09-13T16:32:18.834Z,0.98
2023-09-13T16:35:06.848Z,0.83
2023-09-13T16:37:54.733Z,0.90
2023-09-13T16:40:42.598Z,1.00
2023-09-13T16:43:30.445Z,1.13
2023-09-13T16:46:19.769Z,1.20
2023-09-13T16:49:08.256Z,1.00
2023-09-13T16:51:56.611Z,0.93
2023-09-13T16:54:44.903Z,1.17
2023-09-13T16:57:33.534Z,0.85
2023-09-13T17:00:23.707Z,0.93
2023-09-13T17:03:12.985Z,1.30
2023-09-13T17:06:00.849Z,1.25
2023-09-13T17:08:49.814Z,1.20
2023-09-13T17:11:37.712Z,1.20
2023-09-13T17:14:25.680Z,1.02
2023-09-13T17:17:15.121Z,1.30
2023-09-13T17:20:06.139Z,1.17
2023-09-13T17:22:53.946Z,1.10
2023-09-13T17:25:41.824Z,1.38
2023-09-13T17:28:29.681Z,1.20
2023-09-13T17:31:17.577Z,1.17
2023-09-13T17:34:05.543Z,1.50
2023-09-13T17:36:54.882Z,1.10
2023-09-13T17:39:42.805Z,1.20
2023-09-13T17:42:30.786Z,1.30
2023-09-13T17:45:18.870Z,1.03
2023-09-13T17:48:07.267Z,1.23
2023-09-13T17:50:55.201Z,1.42
2023-09-13T17:53:44.403Z,1.30
2023-09-13T17:56:33.881Z,0.90
2023-09-13T17:59:21.844Z,0.97
2023-09-13T18:02:09.705Z,1.13
2023-09-13T18:05:00.296Z,1.00
2023-09-13T18:07:48.242Z,1.08
2023-09-13T18:10:37.406Z,1.17
2023-09-13T18:13:25.340Z,1.07
2023-09-13T18:16:13.260Z,1.20
2023-09-13T18:19:01.248Z,1.00
2023-09-13T18:21:49.347Z,0.90
2023-09-13T18:24:39.854Z,1.00
2023-09-13T18:27:29.633Z,0.90
2023-09-13T18:30:17.611Z,1.00
2023-09-13T18:33:05.763Z,1.48
2023-09-13T18:35:58.451Z,1.00
2023-09-13T18:38:46.646Z,1.02
2023-09-13T18:41:35.495Z,1.13
2023-09-13T18:44:27.315Z,1.00
2023-09-13T18:47:15.358Z,0.90
2023-09-13T18:50:03.350Z,1.08
2023-09-13T18:52:51.237Z,1.13
2023-09-13T18:55:41.792Z,1.33
2023-09-13T18:58:29.861Z,1.20
2023-09-13T19:01:19.029Z,0.90
2023-09-13T19:04:07.027Z,0.93
2023-09-13T19:07:08.339Z,1.00
2023-09-13T19:09:58.050Z,1.03
2023-09-13T19:12:48.687Z,1.10
2023-09-13T19:15:36.729Z,0.98
2023-09-13T19:18:26.014Z,1.10
2023-09-13T19:21:15.075Z,1.20
2023-09-13T19:24:02.999Z,1.07
2023-09-13T19:26:50.933Z,1.15
2023-09-13T19:29:39.282Z,1.50
2023-09-13T19:32:27.275Z,1.27
2023-09-13T19:35:16.889Z,1.33
2023-09-13T19:38:13.201Z,1.10
2023-09-13T19:41:08.127Z,1.10
2023-09-13T19:43:56.186Z,1.10
2023-09-13T19:46:44.565Z,1.10
2023-09-13T19:49:32.476Z,1.33
2023-09-13T19:52:22.899Z,1.43
2023-09-13T19:55:10.796Z,1.00
2023-09-13T19:57:58.694Z,1.10
2023-09-13T20:00:48.604Z,1.30
2023-09-13T20:03:36.915Z,1.05
2023-09-13T20:06:25.966Z,1.17
2023-09-13T20:09:15.148Z,1.00
2023-09-13T20:12:03.632Z,0.90
2023-09-13T20:14:51.553Z,1.20
2023-09-13T20:17:39.485Z,1.20
2023-09-13T20:20:27.907Z,1.57
2023-09-13T20:23:15.899Z,1.05
2023-09-13T20:26:05.677Z,1.10
2023-09-13T20:28:53.664Z,1.20
2023-09-13T20:31:41.632Z,1.13
2023-09-13T20:34:34.807Z,1.10
2023-09-13T20:37:22.820Z,1.50
2023-09-13T20:40:11.403Z,1.10
2023-09-13T20:43:00.610Z,1.13
2023-09-13T20:45:50.080Z,1.15
2023-09-13T20:48:38.108Z,1.60
2023-09-13T20:51:26.076Z,1.30
2023-09-13T20:54:13.974Z,1.35
2023-09-13T20:57:02.540Z,1.27
2023-09-13T20:59:51.804Z,1.25
2023-09-13T21:02:39.737Z,1.00
2023-09-13T21:05:27.638Z,1.23
2023-09-13T21:08:15.488Z,1.20
2023-09-13T21:11:06.193Z,1.20
2023-09-13T21:13:54.059Z,1.25
2023-09-13T21:16:44.050Z,1.07
2023-09-13T21:19:32.619Z,1.00
2023-09-13T21:22:20.534Z,1.10
2023-09-13T21:25:08.800Z,1.40
2023-09-13T21:27:56.705Z,1.50
2023-09-13T21:30:44.723Z,1.17
2023-09-13T21:33:34.058Z,1.27
2023-09-13T21:36:23.593Z,1.20
2023-09-13T21:39:11.838Z,1.60
2023-09-13T21:41:59.725Z,1.50
2023-09-13T21:44:47.658Z,1.20
2023-09-13T21:47:35.527Z,1.50
2023-09-13T21:50:24.829Z,1.50
2023-09-13T21:53:15.657Z,1.17
2023-09-13T21:56:04.962Z,1.40
2023-09-13T21:58:52.784Z,1.63
2023-09-13T22:01:42.335Z,1.30
2023-09-13T22:04:30.820Z,1.50
2023-09-13T22:07:20.107Z,1.48
2023-09-13T22:10:08.333Z,1.50
2023-09-13T22:12:56.144Z,1.60
2023-09-13T22:15:46.425Z,1.50
2023-09-13T22:18:34.427Z,1.50
2023-09-13T22:21:23.035Z,1.98
2023-09-13T22:24:12.197Z,1.50
2023-09-13T22:27:00.076Z,1.80
2023-09-13T22:29:48.359Z,1.73
2023-09-13T22:32:36.397Z,1.90
2023-09-13T22:35:24.301Z,1.70
2023-09-13T22:38:12.280Z,1.65
2023-09-13T22:41:01.978Z,1.80
2023-09-13T22:43:52.428Z,1.55
2023-09-13T22:46:40.325Z,1.65
2023-09-13T22:49:28.643Z,1.70
2023-09-13T22:52:16.688Z,1.60
2023-09-13T22:55:04.757Z,1.50
2023-09-13T22:57:54.045Z,1.88
2023-09-13T23:00:41.987Z,1.50
2023-09-13T23:03:43.950Z,1.58
2023-09-13T23:06:32.965Z,1.50
2023-09-13T23:09:20.904Z,1.37
2023-09-13T23:12:09.114Z,1.45
2023-09-13T23:14:58.325Z,1.65
2023-09-13T23:17:46.250Z,1.48
2023-09-13T23:20:36.844Z,1.67
2023-09-13T23:23:24.641Z,1.63
2023-09-13T23:26:13.400Z,1.85
2023-09-13T23:29:01.445Z,1.33
2023-09-13T23:31:51.513Z,1.63
2023-09-13T23:34:41.310Z,1.70
2023-09-13T23:37:29.396Z,1.70
2023-09-13T23:40:18.429Z,1.48
2023-09-13T23:43:06.412Z,1.75
2023-09-13T23:45:54.336Z,1.40
2023-09-13T23:48:44.549Z,1.42
2023-09-13T23:51:32.765Z,1.50
2023-09-13T23:54:20.736Z,1.42
2023-09-13T23:57:08.548Z,1.60
2023-09-13T23:59:56.490Z,1.70
